Terminal Aerodrome Forecast
Issued by NWS

Home | Current Version | Previous Version | Text Only | Print | Product List | Glossary On
Versions: 1 2 3 4 5 6 7 8 9 10 11 12 13 14
000
FTUS46 KMTR 301100
TAFOAK
TAF
KOAK 301122Z 3012/3118 00000KT P6SM SCT200
     FM301700 24005KT P6SM SCT250
     FM302100 28009KT P6SM BKN250
     FM310300 25008KT P6SM OVC050
     FM310600 20009KT P6SM BKN015 OVC050
     FM311730 25011KT P6SM -RA BKN025 OVC040=

USA.gov is the U.S. government's official web portal to all federal, state and local government web resources and services.